createdAt,value
2018-10-12T00:01:52.519Z,19.50
2018-10-12T00:06:56.256Z,19.50
2018-10-12T00:12:11.184Z,19.50
2018-10-12T00:22:47.503Z,19.50
2018-10-12T00:27:51.651Z,19.50
2018-10-12T00:32:55.524Z,19.50
2018-10-12T00:37:59.357Z,19.50
2018-10-12T00:43:04.559Z,19.50
2018-10-12T00:53:37.702Z,19.50
2018-10-12T00:58:41.868Z,19.50
2018-10-12T01:03:45.634Z,19.50
2018-10-12T01:20:06.076Z,19.50
2018-10-12T01:36:18.696Z,19.40
2018-10-12T01:41:22.426Z,19.40
2018-10-12T01:46:31.290Z,19.40
2018-10-12T01:51:35.034Z,19.40
2018-10-12T01:56:39.176Z,19.40
2018-10-12T02:01:43.028Z,19.40
2018-10-12T02:06:47.090Z,19.30
2018-10-12T02:11:51.077Z,19.30
2018-10-12T02:16:54.977Z,19.30
2018-10-12T02:21:59.163Z,19.20
2018-10-12T02:27:02.865Z,19.20
2018-10-12T02:32:07.165Z,19.20
2018-10-12T03:32:11.333Z,19.10
2018-10-12T03:37:15.378Z,19.10
2018-10-12T03:42:19.394Z,19.00
2018-10-12T03:47:23.118Z,19.10
2018-10-12T03:52:27.267Z,19.10
2018-10-12T03:57:36.537Z,19.10
2018-10-12T04:02:40.727Z,19.00
2018-10-12T04:07:44.992Z,19.10
2018-10-12T04:12:49.524Z,19.00
2018-10-12T04:17:53.950Z,19.00
2018-10-12T04:22:58.067Z,19.00
2018-10-12T04:28:01.960Z,19.00
2018-10-12T04:33:05.787Z,19.00
2018-10-12T04:43:38.558Z,18.90
2018-10-12T04:48:44.127Z,18.90
2018-10-12T04:53:48.710Z,18.90
2018-10-12T04:58:56.516Z,18.90
2018-10-12T05:04:00.337Z,18.90
2018-10-12T05:14:52.855Z,18.90
2018-10-12T05:19:57.240Z,18.80
2018-10-12T05:25:01.732Z,18.80
2018-10-12T05:30:05.806Z,18.80
2018-10-12T05:35:09.543Z,18.80
2018-10-12T05:40:13.715Z,18.80
2018-10-12T05:45:17.408Z,18.70
2018-10-12T05:50:21.598Z,18.70
2018-10-12T05:55:25.307Z,18.70
2018-10-12T06:00:29.506Z,18.70
2018-10-12T06:05:33.243Z,18.70
2018-10-12T06:10:37.575Z,18.60
2018-10-12T06:15:41.490Z,18.60
2018-10-12T06:20:45.180Z,18.60
2018-10-12T06:25:49.217Z,18.60
2018-10-12T06:30:52.981Z,18.60
2018-10-12T06:35:57.222Z,18.60
2018-10-12T06:41:01.099Z,18.60
2018-10-12T06:46:05.025Z,18.60
2018-10-12T06:51:09.420Z,18.60
2018-10-12T06:56:13.248Z,18.60
2018-10-12T07:01:17.046Z,18.60
2018-10-12T07:06:21.880Z,18.60
2018-10-12T07:11:25.907Z,18.60
2018-10-12T07:16:29.557Z,18.70
2018-10-12T07:21:33.748Z,18.70
2018-10-12T07:26:37.576Z,18.70
2018-10-12T07:31:41.425Z,18.80
2018-10-12T07:36:45.854Z,18.80
2018-10-12T07:41:50.192Z,18.80
2018-10-12T07:46:53.866Z,18.90
2018-10-12T07:51:57.529Z,18.90
2018-10-12T07:57:06.953Z,19.00
2018-10-12T08:02:11.360Z,19.10
2018-10-12T08:07:15.705Z,19.10
2018-10-12T08:12:19.940Z,19.10
2018-10-12T08:17:23.757Z,19.20
2018-10-12T08:22:27.454Z,19.30
2018-10-12T08:27:31.276Z,19.30
2018-10-12T08:32:35.318Z,19.40
2018-10-12T08:37:39.023Z,19.50
2018-10-12T08:42:42.806Z,19.50
2018-10-12T08:47:46.794Z,19.60
2018-10-12T08:52:50.817Z,19.70
2018-10-12T08:57:54.872Z,19.80
2018-10-12T09:02:58.807Z,19.90
2018-10-12T09:08:02.395Z,20.00
2018-10-12T09:13:06.496Z,20.10
2018-10-12T09:34:49.879Z,20.60
2018-10-12T09:39:53.877Z,20.70
2018-10-12T09:44:57.704Z,20.80
2018-10-12T09:50:01.909Z,21.00
2018-10-12T09:55:06.029Z,21.10
2018-10-12T10:00:15.792Z,21.20
2018-10-12T10:05:19.529Z,21.30
2018-10-12T10:10:23.859Z,21.40
2018-10-12T10:15:27.505Z,21.40
2018-10-12T10:20:31.411Z,21.50
2018-10-12T10:25:35.553Z,21.60
2018-10-12T10:30:39.280Z,21.70
2018-10-12T10:35:44.198Z,21.90
2018-10-12T10:40:47.984Z,22.00
2018-10-12T10:45:52.571Z,22.20
2018-10-12T10:50:56.240Z,22.30
2018-10-12T10:56:00.278Z,22.40
2018-10-12T11:01:04.142Z,22.60
2018-10-12T11:06:07.892Z,22.70
2018-10-12T11:11:11.927Z,22.80
2018-10-12T11:16:16.272Z,22.90
2018-10-12T11:21:20.316Z,23.10
2018-10-12T11:26:24.491Z,23.20
2018-10-12T11:31:28.635Z,23.30
2018-10-12T11:36:32.987Z,23.40
2018-10-12T11:58:21.805Z,24.00
2018-10-12T12:08:53.856Z,24.20
2018-10-12T12:13:58.137Z,24.40
2018-10-12T12:40:54.215Z,24.50
2018-10-12T12:45:58.321Z,24.60
2018-10-12T12:51:02.625Z,24.80
2018-10-12T12:56:25.180Z,24.90
2018-10-12T13:01:28.902Z,24.90
2018-10-12T13:06:33.391Z,25.10
2018-10-12T13:11:37.844Z,25.20
2018-10-12T13:16:41.568Z,25.30
2018-10-12T13:21:45.589Z,25.30
2018-10-12T13:26:49.456Z,25.50
2018-10-12T13:31:53.384Z,25.50
2018-10-12T13:36:57.309Z,25.60
2018-10-12T13:42:01.186Z,25.60
2018-10-12T13:47:04.892Z,25.60
2018-10-12T13:52:08.956Z,25.70
2018-10-12T13:57:12.763Z,25.70
2018-10-12T14:02:16.695Z,25.70
2018-10-12T14:07:20.954Z,25.70
2018-10-12T14:12:25.566Z,25.70
2018-10-12T14:17:29.273Z,25.70
2018-10-12T14:22:33.503Z,25.70
2018-10-12T15:27:57.905Z,25.30
2018-10-12T15:33:01.930Z,25.20
2018-10-12T15:38:06.055Z,25.10
2018-10-12T15:43:10.210Z,25.10
2018-10-12T15:48:14.364Z,25.00
2018-10-12T15:53:18.296Z,24.90
2018-10-12T16:04:14.771Z,24.70
2018-10-12T16:09:18.507Z,24.60
2018-10-12T16:14:22.324Z,24.60
2018-10-12T16:19:32.262Z,24.50
2018-10-12T16:24:36.387Z,24.40
2018-10-12T16:29:40.957Z,24.30
2018-10-12T16:34:45.155Z,24.20
2018-10-12T16:39:49.287Z,24.20
2018-10-12T16:44:53.147Z,24.10
2018-10-12T16:49:57.755Z,24.10
2018-10-12T16:55:01.896Z,23.90
2018-10-12T17:00:05.850Z,23.80
2018-10-12T17:05:09.816Z,23.70
2018-10-12T17:15:54.053Z,23.70
2018-10-12T17:20:57.682Z,23.60
2018-10-12T17:26:02.405Z,23.50
2018-10-12T17:31:06.314Z,23.30
2018-10-12T17:36:10.213Z,23.20
2018-10-12T17:41:19.508Z,23.20
2018-10-12T17:46:23.550Z,23.10
2018-10-12T17:51:27.268Z,23.00
2018-10-12T17:56:31.656Z,23.00
2018-10-12T18:01:36.560Z,22.90
2018-10-12T18:06:40.496Z,22.90
2018-10-12T18:11:44.873Z,22.90
2018-10-12T18:16:48.972Z,22.80
2018-10-12T18:21:53.141Z,22.80
2018-10-12T18:54:23.571Z,22.70
2018-10-12T18:59:27.279Z,22.60
2018-10-12T19:04:31.359Z,22.60
2018-10-12T19:15:16.725Z,22.60
2018-10-12T19:20:21.000Z,22.60
2018-10-12T19:25:25.171Z,22.60
2018-10-12T19:30:29.349Z,22.50
2018-10-12T19:35:33.156Z,22.50
2018-10-12T19:40:37.458Z,22.50
2018-10-12T19:45:41.788Z,22.50
2018-10-12T19:50:45.585Z,22.50
2018-10-12T19:55:49.598Z,22.40
2018-10-12T20:00:53.478Z,22.40
2018-10-12T20:05:57.266Z,22.40
2018-10-12T20:11:01.112Z,22.40
2018-10-12T20:16:04.948Z,22.40
2018-10-12T20:21:09.043Z,22.40
2018-10-12T20:26:13.079Z,22.30
2018-10-12T20:31:16.861Z,22.30
2018-10-12T20:36:20.928Z,22.30
2018-10-12T20:41:24.771Z,22.20
2018-10-12T20:46:28.982Z,22.20
2018-10-12T20:51:32.640Z,22.20
2018-10-12T20:56:36.904Z,22.20
2018-10-12T21:01:41.088Z,22.20
2018-10-12T21:06:44.915Z,22.20
2018-10-12T21:11:49.214Z,22.10
2018-10-12T21:16:53.914Z,22.10
2018-10-12T21:21:57.771Z,22.20
2018-10-12T21:27:01.605Z,22.20
2018-10-12T21:32:05.833Z,22.10
2018-10-12T21:37:09.826Z,22.10
2018-10-12T21:42:13.703Z,22.10
2018-10-12T21:47:18.146Z,22.10
2018-10-12T21:52:21.835Z,22.10
2018-10-12T21:57:25.928Z,22.00
2018-10-12T22:02:30.825Z,22.00
2018-10-12T22:07:34.727Z,22.00
2018-10-12T22:12:39.478Z,22.00
2018-10-12T22:17:43.801Z,22.00
2018-10-12T22:22:48.059Z,22.00
2018-10-12T22:44:18.872Z,22.00
2018-10-12T22:49:23.125Z,21.90
2018-10-12T22:54:26.696Z,21.90
2018-10-12T22:59:30.802Z,21.90
2018-10-12T23:04:34.788Z,21.90
2018-10-12T23:09:39.679Z,21.90
2018-10-12T23:14:43.483Z,21.80
2018-10-12T23:19:47.704Z,21.90
2018-10-12T23:36:10.279Z,21.80
2018-10-12T23:41:14.079Z,21.80
2018-10-12T23:46:17.880Z,21.80
2018-10-12T23:51:22.178Z,21.80
2018-10-12T23:56:26.329Z,21.80
